Impacts TAF Board INFO
FOR SITUATIONAL AWARENESS. NOT TO BE USED FOR FLIGHT PLANNING PURPOSES.
IDs:

KMEM - Memphis Intl, TN, US

Issued at 1135 UTC 19 Jan 2017
Updated at 1300 UTC 19 Jan 2017
Potential Impact None Slight Moderate High
Time1254Z 19/13Z 19/14Z 19/15Z 19/16Z 19/17Z 19/18Z 19/19Z 19/20Z 19/21Z 19/22Z 19/23Z 20/00Z 20/01Z
Type OBS PRVL
  [TEMP]  
PRVL
  [TEMP]  
PRVL
  [TEMP]  
PRVL PRVL PRVL PRVL PRVL PRVL PRVL PRVL PRVL PRVL
VIS 3 6
  [2]  
6
  [2]  
6
  [2]  
6 6 6 >6 >6 >6 >6 >6 >6 >6
CIG 6 6
  [4]  
6
  [4]  
6
  [4]  
6 6 6 70 70 70 70 70 70 70
Cover OVC OVC
  [BKN]  
OVC
  [BKN]  
OVC
  [BKN]  
OVC OVC OVC BKN BKN BKN BKN BKN BKN BKN
FltCat IFR IFR
  [LIFR]  
IFR
  [LIFR]  
IFR
  [LIFR]  
IFR IFR IFR VFR VFR VFR VFR VFR VFR VFR
WX BR -SHRA BR VCTS
  [TSRA BR]  
-SHRA BR VCTS
  [TSRA BR]  
-SHRA BR VCTS
  [TSRA BR]  
-SHRA BR VCTS -SHRA BR VCTS -SHRA BR VCTS -SHRA -SHRA -SHRA -SHRA -SHRA -SHRA -SHRA
WDir 110 120
[120]
120
[120]
120
[120]
120 120 120 200 200 200 200 200 200 200
WSpd 5 5
  [5]  
5
  [5]  
5
  [5]  
5 5 5 7 7 7 7 7 7 7
WGst -- --
  [--]  
--
  [--]  
--
  [--]  
-- -- -- -- -- -- -- -- -- --

Raw TAF
KMEM 191135Z 1912/2012 12005KT 6SM -SHRA BR VCTS OVC006CB
  TEMPO 1912/1916 2SM TSRA BR BKN004CB
  FM191900 20007KT P6SM -SHRA SCT015 BKN070
  FM200200 21008KT P6SM VCSH BKN015
  FM200600 20007KT 4SM -DZ BR OVC004


Raw METAR
KMEM 191254Z 11005KT 3SM BR OVC006 14/14 A2984 RMK AO2 TSE02RAB09E22 PRESFR SLP104 P0001 T01440139
KMEM 191202Z 11006KT 4SM BR BKN006 OVC009 13/13 A2986 RMK AO2 TSE02 CIG 004V007 OCNL LTG DSNT SE-NW
KMEM 191154Z 11005KT 4SM TS BR BKN006 BKN012 OVC021CB 13/13 A2986 RMK AO2 TSE14B40RAE53 SLP111 OCNL LTGIC SW TS SW MOV NE P0005 60006 70008 T01330133 10139 20117 56029
KMEM 191142Z 10007KT 4SM -TSRA BR BKN006 BKN012 OVC021CB 13/13 A2987 RMK AO2 TSE14B40 OCNL LTGIC SW TS SW MOV NE P0005
KMEM 191114Z 09006KT 4SM -RA BR BKN006 OVC012 13/13 A2988 RMK AO2 TSE14 P0003
KMEM 191054Z 10006KT 4SM +TSRA BR OVC006CB 13/12 A2989 RMK AO2 TSB35RAB51 SLP120 OCNL LTGICCG W TS W MOV NE P0001 T01330122
KMEM 191035Z 12007KT 6SM TS BR OVC006CB 13/12 A2990 RMK AO2 TSB35 OCNL LTGCG W TS W MOV NE
KMEM 190954Z VRB05KT 7SM OVC006 13/12 A2991 RMK AO2 SLP128 T01330122

METAR Board
Radar Display
Forecast Discussion

FOR SITUATIONAL AWARENESS. NOT TO BE USED FOR FLIGHT PLANNING PURPOSES.

Page loaded:  13:00 UTC  |   05:00 AM Pacific  |   06:00 AM Mountain  |   07:00 AM Central  |   08:00 AM Eastern

 

ADVISORIES

FORECASTS

FORECASTS

OBSERVATIONS

USER TOOLS

ABOUT US